All
Siljansnas Airport (Siljansnas) ESVS Weather
There is no TAF data available at ESVS or any nearby airports.
There is no METAR data available at ESVS. Showing METAR data for ESKM (16 mi NW).
Recent MXX METAR history (no data for ESVS)
| Date | Time (CEST) | Flight Rules | Wind Dir. | Speed | Type | Height AGL (ft) | Visibility | Temp (°C) | Temp (°F) | Dew Point (°C) | Dew Point (°F) | Rel. Humid. | Pressure | Density Altitude | Remarks |
|---|---|---|---|---|---|---|---|---|---|---|---|---|---|---|---|
| 08-May | 08:20 | VFR | Variable | 3 kt | 10000 meters | 6° | 42° | -1° | 30° | 61% | 1023 mb | -735 ft | |||
| 08-May | 07:50 | VFR | Variable | 2 kt | 10000 meters | 4° | 39° | -1° | 30° | 70% | 1023 mb | -975 ft | |||
| 08-May | 07:20 | VFR | 360° | 3 kt | 10000 meters | 3° | 37° | -2° | 28° | 70% | 1023 mb | -1,095 ft | |||
| 08-May | 06:50 | VFR | 340° | 5 kt | 10000 meters | 2° | 35° | -2° | 28° | 75% | 1023 mb | -1,215 ft | |||
| 08-May | 06:20 | VFR | 340° | 6 kt | Few |
14,000 |
10000 meters | 1° | 33° | -2° | 28° | 80% | 1023 mb | -1,335 ft | |
| 08-May | 05:50 | VFR | 340° | 5 kt | 10000 meters | -1° | 30° | -3° | 26° | 86% | 1023 mb | -1,575 ft | |||
| 08-May | 05:20 | VFR | 330° | 4 kt | Few |
13,000 |
10000 meters | -2° | 28° | -4° | 24° | 86% | 1022 mb | -1,666 ft | |
| 08-May | 04:50 | VFR | 340° | 4 kt | 10000 meters | -2° | 28° | -4° | 24° | 86% | 1022 mb | -1,666 ft | |||
| 08-May | 04:20 | VFR | 340° | 5 kt | 10000 meters | -2° | 28° | -4° | 24° | 86% | 1022 mb | -1,666 ft | |||
| 08-May | 03:50 | VFR | 340° | 5 kt | 10000 meters | -2° | 28° | -4° | 24° | 86% | 1022 mb | -1,666 ft | |||
| 08-May | 03:20 | VFR | 330° | 3 kt | 10000 meters | -1° | 30° | -3° | 26° | 86% | 1021 mb | -1,516 ft | |||
| 08-May | 02:50 | VFR | 320° | 3 kt | 10000 meters | -1° | 30° | -3° | 26° | 86% | 1021 mb | -1,516 ft | |||
| 08-May | 02:20 | VFR | 330° | 4 kt | 10000 meters | -1° | 30° | -3° | 26° | 86% | 1021 mb | -1,516 ft | |||
| 08-May | 01:50 | VFR | 330° | 4 kt | 10000 meters | -1° | 30° | -5° | 23° | 74% | 1021 mb | -1,516 ft | |||
| 08-May | 01:20 | VFR | 340° | 6 kt | 10000 meters | 0° | 32° | -4° | 24° | 74% | 1021 mb | -1,396 ft | |||
| 08-May | 00:50 | VFR | 340° | 7 kt | 10000 meters | 1° | 33° | -4° | 24° | 69% | 1020 mb | -1,247 ft | |||
| 08-May | 00:20 | VFR | 340° | 7 kt | 10000 meters | 1° | 33° | -5° | 23° | 64% | 1020 mb | -1,247 ft | |||
| 07-May | 23:50 | VFR | 340° | 4 kt | 10000 meters | 1° | 33° | -6° | 21° | 59% | 1020 mb | -1,247 ft | |||
| 07-May | 23:20 | VFR | 310° | 3 kt | 10000 meters | 1° | 33° | -7° | 19° | 55% | 1019 mb | -1,217 ft | |||
| 07-May | 22:50 | VFR | 340° | 7 kt | 10000 meters | 2° | 35° | -7° | 19° | 51% | 1019 mb | -1,097 ft | |||
| 07-May | 22:20 | VFR | 260° | 2 kt | 10000 meters | 3° | 37° | -7° | 19° | 48% | 1019 mb | -977 ft | |||
| 07-May | 21:50 | VFR | Calm | 10000 meters | 4° | 39° | -7° | 19° | 44% | 1018 mb | -828 ft | ||||
| 07-May | 21:20 | VFR | Calm | 10000 meters | 7° | 44° | -6° | 21° | 39% | 1018 mb | -468 ft | ||||
| 07-May | 20:50 | VFR | Calm | 10000 meters | 9° | 48° | -8° | 17° | 29% | 1017 mb | -198 ft |
Login
| Your browser is unsupported. upgrade your browser |
